メインページ
METAR-TAF:

METAR-TAF

空港 :

ラパス, メキシコ

緯度: 24-04N, 経度: 110-22W, 海抜: 21m

現時点の気象観測

当レポートは2時間24分前の05:40(UTC)に作成
南/南東の風 6kt
気温 16°C
湿度 63%
気圧 1016 hPa
視程: 16.1km
晴天

METAR: MMLP 190540Z 16006KT 10SM SKC 16/09 A3001 RMK SLP160 52011 955

時間: 01:04 (08:04 UTC)

予報

当レポートは4時間39分前の03:25(UTC)に作成
予報は19日の 06時(UTC)から 20日の 06時(UTC)まで有効
南/南西の風 5kt
視程: 10km
晴天
19日の 1800時(UTC)から
の風 14kt
視程: 10km
高度25000ftの雲は散在している
20日の 0500時(UTC)から
南/南西の風 5kt
視程: 10km
晴天

TAF: MMLP 190325Z 1906/2006 20005KT P6SM SKC FM191800 36014KT P6SM SCT250 FM200500 20005KT P6SM SKC

4,000以上の空港の気象観測と天気予報(METAR報とTAF報)

利用可能な観測所は地図上に黄色い丸と赤い丸で示す。

丸の上にカーソルを重ねると観測所名を参照できる。

次にクリックすると気象観測と天気予報を参照できる。

マップの切り替え:黒色「×」印の緑ボタンをクリックして拡大、「-」印の緑ボタンをクリックして縮小、緑色の三角印をクリックして隣りの地図に切り替え


METAR-TAF: